createdAt,value
2018-01-01T00:01:09.000Z,989.892
2018-01-01T00:11:09.000Z,989.81
2018-01-01T00:21:09.000Z,990.04
2018-01-01T00:31:09.000Z,990.065
2018-01-01T00:41:09.000Z,990.319
2018-01-01T00:51:09.000Z,990.33
2018-01-01T01:01:09.000Z,990.317
2018-01-01T01:11:09.000Z,990.265
2018-01-01T01:21:09.000Z,990.235
2018-01-01T01:31:09.000Z,990.282
2018-01-01T01:41:11.000Z,990.329
2018-01-01T01:51:09.000Z,990.211
2018-01-01T02:01:09.000Z,990.44
2018-01-01T02:11:10.000Z,990.361
2018-01-01T02:21:10.000Z,990.277
2018-01-01T02:31:11.000Z,990.398
2018-01-01T02:41:10.000Z,990.266
2018-01-01T02:51:10.000Z,990.134
2018-01-01T03:01:10.000Z,990.161
2018-01-01T03:11:10.000Z,990.226
2018-01-01T03:21:10.000Z,990.083
2018-01-01T03:31:10.000Z,990.231
2018-01-01T03:41:10.000Z,990.328
2018-01-01T03:51:10.000Z,990.497
2018-01-01T04:01:10.000Z,990.445
2018-01-01T04:11:10.000Z,990.606
2018-01-01T04:21:11.000Z,990.725
2018-01-01T04:31:10.000Z,990.872
2018-01-01T04:41:10.000Z,991.186
2018-01-01T04:51:10.000Z,991.354
2018-01-01T05:01:10.000Z,991.432
2018-01-01T05:11:10.000Z,991.65
2018-01-01T05:21:10.000Z,991.822
2018-01-01T05:31:10.000Z,991.991
2018-01-01T05:41:10.000Z,992.312
2018-01-01T05:51:10.000Z,992.481
2018-01-01T06:01:10.000Z,992.614
2018-01-01T06:11:10.000Z,992.497
2018-01-01T06:21:10.000Z,992.761
2018-01-01T06:31:10.000Z,992.79
2018-01-01T06:41:10.000Z,992.825
2018-01-01T06:51:10.000Z,992.889
2018-01-01T07:01:10.000Z,992.975
2018-01-01T07:11:10.000Z,993.365
2018-01-01T07:21:10.000Z,993.991
2018-01-01T07:31:10.000Z,993.891
2018-01-01T07:41:10.000Z,994.2
2018-01-01T07:51:10.000Z,993.919
2018-01-01T08:01:10.000Z,994.046
2018-01-01T08:11:10.000Z,994.18
2018-01-01T08:21:10.000Z,994.286
2018-01-01T08:31:10.000Z,994.495
2018-01-01T08:41:10.000Z,994.549
2018-01-01T08:51:10.000Z,994.617
2018-01-01T09:01:10.000Z,994.558
2018-01-01T09:11:10.000Z,994.713
2018-01-01T09:21:10.000Z,994.756
2018-01-01T09:31:10.000Z,994.709
2018-01-01T09:41:10.000Z,994.703
2018-01-01T09:51:10.000Z,994.728
2018-01-01T10:01:10.000Z,994.519
2018-01-01T10:11:10.000Z,994.414
2018-01-01T10:21:10.000Z,994.373
2018-01-01T10:31:10.000Z,994.215
2018-01-01T10:41:11.000Z,994.172
2018-01-01T10:51:11.000Z,994.182
2018-01-01T11:01:11.000Z,994.052
2018-01-01T11:11:11.000Z,994.003
2018-01-01T11:21:12.000Z,993.83
2018-01-01T11:31:11.000Z,993.681
2018-01-01T11:41:11.000Z,993.576
2018-01-01T11:51:11.000Z,993.482
2018-01-01T12:01:11.000Z,993.382
2018-01-01T12:11:11.000Z,993.284
2018-01-01T12:21:11.000Z,993.069
2018-01-01T12:31:11.000Z,992.882
2018-01-01T12:41:11.000Z,992.778
2018-01-01T12:51:11.000Z,992.636
2018-01-01T13:01:11.000Z,992.529
2018-01-01T13:11:11.000Z,992.402
2018-01-01T13:21:11.000Z,992.288
2018-01-01T13:31:11.000Z,992.076
2018-01-01T13:41:11.000Z,991.932
2018-01-01T13:51:11.000Z,991.844
2018-01-01T14:01:11.000Z,991.671
2018-01-01T14:11:11.000Z,991.523
2018-01-01T14:21:11.000Z,991.473
2018-01-01T14:31:11.000Z,991.288
2018-01-01T14:41:11.000Z,991.123
2018-01-01T14:51:11.000Z,991.08
2018-01-01T15:01:11.000Z,990.961
2018-01-01T15:11:11.000Z,990.839
2018-01-01T15:21:11.000Z,990.682
2018-01-01T15:31:11.000Z,990.609
2018-01-01T15:41:11.000Z,990.547
2018-01-01T15:51:11.000Z,990.528
2018-01-01T16:01:11.000Z,990.438
2018-01-01T16:11:11.000Z,990.34
2018-01-01T16:21:11.000Z,990.205
2018-01-01T16:31:11.000Z,990.094
2018-01-01T16:41:11.000Z,990.155
2018-01-01T16:51:11.000Z,990.051
2018-01-01T17:01:11.000Z,989.993
2018-01-01T17:11:11.000Z,989.938
2018-01-01T17:21:11.000Z,989.837
2018-01-01T17:31:11.000Z,989.841
2018-01-01T17:41:11.000Z,989.709
2018-01-01T17:51:11.000Z,989.669
2018-01-01T18:01:11.000Z,989.58
2018-01-01T18:11:11.000Z,989.502
2018-01-01T18:21:11.000Z,989.338
2018-01-01T18:31:11.000Z,989.322
2018-01-01T18:41:11.000Z,989.341
2018-01-01T18:51:12.000Z,989.345
2018-01-01T19:01:12.000Z,989.27
2018-01-01T19:11:12.000Z,989.32
2018-01-01T19:21:12.000Z,989.317
2018-01-01T19:31:12.000Z,989.331
2018-01-01T19:41:12.000Z,989.381
2018-01-01T19:51:12.000Z,989.449
2018-01-01T20:01:12.000Z,989.525
2018-01-01T20:11:12.000Z,989.642
2018-01-01T20:21:12.000Z,989.67
2018-01-01T20:31:12.000Z,989.844
2018-01-01T20:41:13.000Z,989.964
2018-01-01T20:51:12.000Z,990.013
2018-01-01T21:01:12.000Z,989.991
2018-01-01T21:11:12.000Z,990.146
2018-01-01T21:21:13.000Z,990.247
2018-01-01T21:31:12.000Z,990.371
2018-01-01T21:41:12.000Z,990.646
2018-01-01T21:51:12.000Z,990.801
2018-01-01T22:01:12.000Z,991.01
2018-01-01T22:11:12.000Z,991.256
2018-01-01T22:21:12.000Z,991.471
2018-01-01T22:31:12.000Z,991.603
2018-01-01T22:41:12.000Z,991.74
2018-01-01T22:51:12.000Z,991.968
2018-01-01T23:01:12.000Z,992.143
2018-01-01T23:11:12.000Z,992.355
2018-01-01T23:21:12.000Z,992.543
2018-01-01T23:31:12.000Z,992.685
2018-01-01T23:41:12.000Z,992.875
2018-01-01T23:51:12.000Z,993.043
